createdAt,value
2019-06-27T00:02:02.211Z,6.87
2019-06-27T00:04:32.509Z,6.33
2019-06-27T00:07:02.913Z,6.63
2019-06-27T00:09:33.237Z,6.63
2019-06-27T00:12:03.483Z,7.17
2019-06-27T00:14:33.829Z,6.27
2019-06-27T00:17:04.508Z,6.73
2019-06-27T00:19:34.839Z,7.20
2019-06-27T00:22:05.312Z,6.70
2019-06-27T00:24:35.543Z,7.07
2019-06-27T00:27:05.814Z,6.03
2019-06-27T00:29:36.201Z,7.03
2019-06-27T00:32:10.824Z,6.30
2019-06-27T00:34:41.105Z,7.40
2019-06-27T00:37:11.349Z,7.43
2019-06-27T00:39:41.874Z,8.07
2019-06-27T00:42:12.193Z,7.33
2019-06-27T00:44:42.792Z,7.50
2019-06-27T00:47:13.069Z,7.93
2019-06-27T00:49:43.362Z,7.40
2019-06-27T00:52:13.614Z,7.80
2019-06-27T00:54:43.836Z,8.10
2019-06-27T00:57:14.972Z,8.63
2019-06-27T00:59:45.467Z,7.63
2019-06-27T01:02:15.691Z,7.80
2019-06-27T01:04:46.212Z,8.33
2019-06-27T01:07:16.462Z,8.70
2019-06-27T01:09:46.707Z,8.20
2019-06-27T01:12:16.975Z,8.00
2019-06-27T01:14:47.326Z,8.00
2019-06-27T01:17:18.048Z,8.20
2019-06-27T01:19:48.269Z,7.90
2019-06-27T01:22:18.539Z,7.33
2019-06-27T01:24:48.826Z,8.20
2019-06-27T01:27:29.619Z,7.73
2019-06-27T01:29:51.049Z,7.80
2019-06-27T01:32:21.310Z,7.87
2019-06-27T01:34:51.639Z,7.83
2019-06-27T01:37:21.872Z,8.10
2019-06-27T01:39:52.181Z,7.57
2019-06-27T01:42:22.454Z,8.10
2019-06-27T01:45:06.747Z,8.03
2019-06-27T01:47:36.960Z,9.30
2019-06-27T01:50:07.438Z,8.50
2019-06-27T01:52:37.734Z,8.50
2019-06-27T01:55:08.025Z,8.33
2019-06-27T01:57:46.739Z,8.50
2019-06-27T02:00:10.586Z,8.00
2019-06-27T02:02:40.938Z,8.97
2019-06-27T02:05:11.334Z,8.50
2019-06-27T02:07:41.612Z,8.90
2019-06-27T02:10:11.838Z,8.40
2019-06-27T02:12:42.470Z,8.83
2019-06-27T02:15:13.603Z,7.97
2019-06-27T02:17:43.978Z,7.90
2019-06-27T02:20:15.481Z,8.10
2019-06-27T02:22:45.855Z,7.90
2019-06-27T02:25:16.465Z,7.53
2019-06-27T02:28:02.606Z,7.80
2019-06-27T02:30:26.086Z,7.93
2019-06-27T02:32:56.318Z,7.70
2019-06-27T02:35:26.579Z,8.83
2019-06-27T02:37:58.056Z,7.83
2019-06-27T02:40:38.099Z,7.93
2019-06-27T02:43:08.369Z,8.40
2019-06-27T02:45:38.606Z,7.90
2019-06-27T02:48:08.829Z,7.53
2019-06-27T02:50:39.160Z,7.23
2019-06-27T02:53:28.978Z,7.37
2019-06-27T02:55:59.319Z,7.57
2019-06-27T02:58:32.275Z,7.70
2019-06-27T03:01:01.500Z,7.33
2019-06-27T03:03:31.815Z,6.47
2019-06-27T03:06:02.024Z,6.47
2019-06-27T03:08:34.776Z,7.33
2019-06-27T03:11:05.125Z,7.07
2019-06-27T03:13:35.369Z,7.10
2019-06-27T03:16:05.621Z,6.80
2019-06-27T03:18:35.940Z,7.00
2019-06-27T03:21:06.444Z,6.53
2019-06-27T03:23:36.723Z,6.87
2019-06-27T03:26:07.012Z,6.83
2019-06-27T03:28:50.973Z,6.33
2019-06-27T03:31:09.117Z,6.67
2019-06-27T03:33:48.940Z,6.20
2019-06-27T03:36:19.229Z,5.90
2019-06-27T03:38:49.556Z,6.70
2019-06-27T03:41:19.849Z,6.10
2019-06-27T03:43:50.126Z,5.83
2019-06-27T03:46:20.399Z,5.47
2019-06-27T03:48:50.957Z,5.37
2019-06-27T03:51:21.275Z,5.90
2019-06-27T03:53:51.660Z,5.87
2019-06-27T03:56:21.989Z,5.47
2019-06-27T03:59:10.777Z,6.13
2019-06-27T04:01:24.223Z,6.43
2019-06-27T04:03:55.871Z,6.40
2019-06-27T04:06:26.158Z,5.60
2019-06-27T04:08:56.499Z,5.90
2019-06-27T04:11:26.761Z,6.50
2019-06-27T04:13:57.014Z,6.63
2019-06-27T04:16:31.570Z,6.33
2019-06-27T04:19:01.847Z,6.07
2019-06-27T04:21:32.108Z,6.37
2019-06-27T04:24:02.433Z,6.07
2019-06-27T04:26:32.769Z,6.67
2019-06-27T04:29:03.141Z,6.17
2019-06-27T04:31:33.707Z,6.53
2019-06-27T04:34:03.912Z,6.60
2019-06-27T04:36:34.217Z,6.50
2019-06-27T04:39:05.048Z,7.00
2019-06-27T04:41:35.326Z,6.77
2019-06-27T04:44:05.576Z,6.93
2019-06-27T04:46:39.541Z,6.63
2019-06-27T04:49:13.365Z,6.67
2019-06-27T04:51:41.785Z,6.50
2019-06-27T04:54:12.050Z,7.07
2019-06-27T04:56:42.327Z,7.50
2019-06-27T04:59:12.928Z,7.00
2019-06-27T05:01:43.169Z,6.83
2019-06-27T05:04:13.465Z,6.77
2019-06-27T05:06:43.741Z,6.33
2019-06-27T05:09:14.017Z,7.00
2019-06-27T05:11:44.285Z,6.90
2019-06-27T05:14:14.893Z,6.90
2019-06-27T05:16:45.351Z,6.93
2019-06-27T05:19:15.633Z,6.97
2019-06-27T05:21:45.952Z,7.73
2019-06-27T05:24:16.244Z,7.30
2019-06-27T05:26:47.885Z,6.63
2019-06-27T05:29:18.189Z,7.07
2019-06-27T05:31:48.467Z,6.60
2019-06-27T05:34:18.663Z,7.37
2019-06-27T05:36:48.935Z,6.97
2019-06-27T05:39:19.285Z,6.73
2019-06-27T05:41:52.081Z,7.70
2019-06-27T05:44:22.382Z,7.33
2019-06-27T05:46:52.584Z,7.33
2019-06-27T05:49:22.833Z,7.07
2019-06-27T05:51:53.091Z,7.47
2019-06-27T05:54:23.645Z,6.73
2019-06-27T05:56:53.847Z,7.03
2019-06-27T05:59:24.121Z,7.53
2019-06-27T06:01:55.785Z,7.00
2019-06-27T06:04:25.977Z,7.20
2019-06-27T06:06:56.335Z,7.20
2019-06-27T06:09:27.512Z,8.17
2019-06-27T06:11:58.773Z,7.90
2019-06-27T06:14:29.521Z,7.73
2019-06-27T06:16:59.868Z,7.43
2019-06-27T06:19:30.110Z,7.57
2019-06-27T06:22:00.390Z,8.30
2019-06-27T06:24:33.330Z,9.70
2019-06-27T06:27:03.654Z,8.20
2019-06-27T06:29:34.493Z,10.27
2019-06-27T06:32:04.809Z,10.77
2019-06-27T06:34:35.120Z,9.83
2019-06-27T06:37:08.053Z,10.50
2019-06-27T06:39:37.269Z,9.77
2019-06-27T06:42:07.797Z,9.67
2019-06-27T06:44:38.046Z,11.23
2019-06-27T06:47:08.277Z,10.70
2019-06-27T06:49:38.547Z,9.67
2019-06-27T06:52:08.804Z,11.00
2019-06-27T06:54:39.095Z,10.63
2019-06-27T06:57:10.642Z,10.07
2019-06-27T06:59:40.954Z,10.63
2019-06-27T07:02:11.210Z,11.23
2019-06-27T07:04:41.513Z,12.20
2019-06-27T07:07:13.212Z,13.37
2019-06-27T07:09:49.699Z,12.40
2019-06-27T07:12:19.915Z,14.17
2019-06-27T07:14:50.262Z,13.37
2019-06-27T07:17:20.655Z,13.07
2019-06-27T07:19:50.840Z,14.97
2019-06-27T07:22:21.602Z,12.70
2019-06-27T07:24:51.927Z,12.17
2019-06-27T07:27:22.205Z,11.93
2019-06-27T07:29:52.437Z,13.73
2019-06-27T07:32:22.644Z,13.10
2019-06-27T07:34:52.881Z,15.57
2019-06-27T07:37:23.402Z,15.30
2019-06-27T07:39:53.696Z,17.27
2019-06-27T07:42:23.964Z,15.67
2019-06-27T07:44:54.277Z,16.10
2019-06-27T07:47:24.496Z,16.20
2019-06-27T07:49:55.169Z,14.83
2019-06-27T07:52:25.820Z,16.00
2019-06-27T07:54:56.046Z,15.67
2019-06-27T07:57:26.335Z,12.83
2019-06-27T07:59:56.539Z,13.50
2019-06-27T08:02:26.917Z,15.27
2019-06-27T08:04:57.491Z,14.97
2019-06-27T08:07:27.773Z,14.70
2019-06-27T08:09:58.058Z,13.70
2019-06-27T08:12:29.305Z,14.27
2019-06-27T08:14:59.574Z,15.13
2019-06-27T08:17:29.893Z,13.07
2019-06-27T08:20:01.453Z,11.73
2019-06-27T08:22:31.810Z,13.63
2019-06-27T08:25:02.101Z,12.80
2019-06-27T08:27:32.307Z,10.47
2019-06-27T08:30:02.596Z,10.47
2019-06-27T08:32:50.316Z,11.23
2019-06-27T08:35:20.527Z,8.53
2019-06-27T08:37:50.826Z,7.90
2019-06-27T08:40:21.109Z,8.90
2019-06-27T08:42:52.449Z,8.70
2019-06-27T08:45:27.495Z,8.63
2019-06-27T08:47:57.708Z,8.87
2019-06-27T08:50:28.031Z,7.40
2019-06-27T08:53:01.260Z,7.07
2019-06-27T08:55:30.452Z,6.60
2019-06-27T08:58:00.791Z,6.30
2019-06-27T09:00:31.351Z,6.37
2019-06-27T09:03:01.745Z,6.70
2019-06-27T09:05:32.085Z,6.87
2019-06-27T09:08:05.432Z,6.37
2019-06-27T09:10:35.781Z,6.20
2019-06-27T09:13:06.568Z,5.63
2019-06-27T09:15:36.895Z,6.03
2019-06-27T09:18:07.231Z,6.23
2019-06-27T09:20:37.516Z,5.40
2019-06-27T09:23:07.841Z,5.17
2019-06-27T09:25:38.273Z,5.10
2019-06-27T09:28:08.686Z,5.20
2019-06-27T09:30:38.957Z,5.67
2019-06-27T09:33:09.249Z,4.63
2019-06-27T09:35:39.499Z,4.63
2019-06-27T09:38:09.790Z,4.70
2019-06-27T09:40:41.241Z,4.30
2019-06-27T09:43:20.037Z,3.80
2019-06-27T09:45:50.323Z,3.90
2019-06-27T09:48:20.574Z,3.97
2019-06-27T09:50:50.846Z,3.83
2019-06-27T09:53:21.083Z,3.73
2019-06-27T09:55:56.659Z,3.17
2019-06-27T09:58:26.935Z,2.87
2019-06-27T10:00:57.165Z,2.00
2019-06-27T10:03:27.504Z,2.13
2019-06-27T10:05:57.745Z,2.37
2019-06-27T10:08:29.309Z,2.20
2019-06-27T10:10:59.686Z,2.10
2019-06-27T10:13:29.891Z,2.00
2019-06-27T10:16:01.658Z,1.70
2019-06-27T10:18:31.924Z,1.97
2019-06-27T10:21:02.162Z,1.87
2019-06-27T10:23:32.451Z,1.87
2019-06-27T10:26:02.747Z,2.10
2019-06-27T10:28:32.984Z,1.60
2019-06-27T10:31:03.205Z,1.63
2019-06-27T10:33:33.521Z,1.77
2019-06-27T10:36:03.828Z,1.70
2019-06-27T10:38:34.049Z,1.70
2019-06-27T10:41:06.767Z,1.63
2019-06-27T10:43:37.036Z,1.93
2019-06-27T10:46:07.283Z,1.80
2019-06-27T10:48:37.555Z,1.70
2019-06-27T10:51:07.794Z,1.33
2019-06-27T10:53:38.057Z,1.40
2019-06-27T10:56:13.621Z,1.50
2019-06-27T10:58:43.876Z,1.30
2019-06-27T11:01:14.126Z,1.30
2019-06-27T11:03:44.502Z,1.60
2019-06-27T11:06:14.840Z,1.50
2019-06-27T11:08:51.012Z,1.33
2019-06-27T11:11:21.248Z,1.80
2019-06-27T11:13:58.770Z,1.50
2019-06-27T11:16:23.563Z,1.63
2019-06-27T11:18:53.818Z,1.40
2019-06-27T11:21:25.526Z,1.50
2019-06-27T11:23:55.794Z,1.40
2019-06-27T11:26:26.158Z,1.30
2019-06-27T11:28:56.641Z,1.40
2019-06-27T11:31:26.902Z,1.57
2019-06-27T11:33:57.250Z,2.00
2019-06-27T11:36:29.380Z,1.40
2019-06-27T11:38:59.638Z,1.70
2019-06-27T11:41:29.899Z,1.90
2019-06-27T11:44:00.207Z,1.60
2019-06-27T11:46:30.595Z,1.43
2019-06-27T11:49:01.051Z,1.40
2019-06-27T11:51:34.919Z,1.90
2019-06-27T11:54:05.110Z,1.77
2019-06-27T11:56:35.376Z,1.73
2019-06-27T11:59:05.688Z,1.60
2019-06-27T12:01:35.952Z,1.70
2019-06-27T12:04:06.559Z,1.50
2019-06-27T12:06:36.764Z,1.60
2019-06-27T12:09:07.628Z,1.40
2019-06-27T12:11:37.866Z,1.53
2019-06-27T12:14:08.217Z,1.77
2019-06-27T12:16:42.270Z,1.57
2019-06-27T12:19:12.508Z,1.93
2019-06-27T12:21:42.812Z,1.90
2019-06-27T12:24:14.224Z,1.40
2019-06-27T12:26:44.468Z,1.70
2019-06-27T12:29:26.525Z,1.70
2019-06-27T12:31:56.758Z,1.77
2019-06-27T12:34:26.999Z,1.90
2019-06-27T12:36:57.879Z,1.77
2019-06-27T12:39:28.410Z,2.20
2019-06-27T12:41:58.701Z,1.80
2019-06-27T12:44:29.202Z,1.60
2019-06-27T12:47:00.543Z,1.90
2019-06-27T12:49:44.865Z,1.80
2019-06-27T12:52:02.809Z,1.70
2019-06-27T12:54:33.059Z,1.80
2019-06-27T12:57:03.276Z,2.30
2019-06-27T12:59:33.855Z,2.00
2019-06-27T13:02:04.215Z,1.80
2019-06-27T13:04:34.441Z,2.03
2019-06-27T13:07:04.780Z,2.03
2019-06-27T13:09:34.953Z,2.13
2019-06-27T13:12:05.263Z,2.00
2019-06-27T13:14:37.860Z,2.00
2019-06-27T13:17:08.087Z,1.97
2019-06-27T13:19:39.806Z,2.10
2019-06-27T13:22:10.204Z,2.20
2019-06-27T13:24:40.504Z,2.00
2019-06-27T13:27:11.140Z,2.23
2019-06-27T13:29:41.357Z,2.27
2019-06-27T13:32:11.660Z,2.00
2019-06-27T13:34:41.948Z,2.30
2019-06-27T13:37:12.389Z,2.00
2019-06-27T13:39:42.644Z,2.30
2019-06-27T13:42:15.214Z,2.43
2019-06-27T13:44:45.473Z,2.10
2019-06-27T13:47:15.722Z,2.47
2019-06-27T13:49:45.944Z,2.07
2019-06-27T13:52:16.162Z,2.30
2019-06-27T13:54:51.154Z,2.10
2019-06-27T13:57:21.408Z,1.80
2019-06-27T13:59:51.693Z,2.00
2019-06-27T14:02:22.035Z,2.00
2019-06-27T14:04:57.072Z,1.70
2019-06-27T14:07:24.320Z,1.70
2019-06-27T14:09:57.447Z,1.70
2019-06-27T14:12:27.918Z,2.10
2019-06-27T14:15:00.004Z,2.07
2019-06-27T14:17:30.809Z,2.33
2019-06-27T14:20:01.061Z,1.93
2019-06-27T14:22:38.818Z,1.63
2019-06-27T14:25:11.224Z,1.60
2019-06-27T14:27:41.506Z,1.60
2019-06-27T14:30:11.832Z,1.60
2019-06-27T14:32:42.125Z,1.83
2019-06-27T14:35:16.302Z,1.80
2019-06-27T14:37:47.825Z,1.50
2019-06-27T14:40:20.075Z,2.00
2019-06-27T14:42:53.962Z,2.10
2019-06-27T14:45:24.233Z,1.80
2019-06-27T14:47:54.556Z,1.90
2019-06-27T14:50:26.279Z,1.73
2019-06-27T14:52:56.605Z,1.77
2019-06-27T14:55:26.856Z,1.90
2019-06-27T14:57:57.484Z,1.97
2019-06-27T15:00:29.146Z,1.83
2019-06-27T15:03:01.686Z,2.10
2019-06-27T15:05:33.593Z,1.87
2019-06-27T15:08:06.199Z,2.00
2019-06-27T15:10:41.749Z,5.20
2019-06-27T15:13:12.164Z,2.00
2019-06-27T15:15:42.597Z,2.20
2019-06-27T15:18:16.370Z,2.20
2019-06-27T15:20:47.059Z,1.80
2019-06-27T15:23:18.957Z,2.07
2019-06-27T15:25:49.334Z,1.90
2019-06-27T15:28:19.713Z,2.00
2019-06-27T15:30:50.014Z,1.90
2019-06-27T15:33:20.280Z,1.90
2019-06-27T15:35:52.297Z,2.10
2019-06-27T15:38:27.046Z,1.97
2019-06-27T15:40:57.349Z,1.97
2019-06-27T15:43:27.542Z,1.93
2019-06-27T15:46:00.958Z,1.97
2019-06-27T15:48:31.299Z,2.10
2019-06-27T15:51:01.533Z,2.10
2019-06-27T15:53:33.346Z,1.73
2019-06-27T15:56:03.536Z,1.90
2019-06-27T15:58:33.764Z,1.63
2019-06-27T16:01:05.734Z,2.17
2019-06-27T16:03:35.966Z,1.87
2019-06-27T16:06:11.073Z,2.00
2019-06-27T16:08:40.408Z,2.70
2019-06-27T16:11:10.777Z,1.90
2019-06-27T16:14:13.550Z,2.13
2019-06-27T16:20:14.181Z,1.80
2019-06-27T16:22:44.449Z,2.10
2019-06-27T16:25:26.919Z,2.00
2019-06-27T16:28:26.923Z,1.97
2019-06-27T16:31:01.339Z,2.03
2019-06-27T16:33:31.647Z,2.50
2019-06-27T16:36:01.941Z,2.40
2019-06-27T16:38:32.187Z,2.23
2019-06-27T16:41:05.274Z,2.33
2019-06-27T16:43:37.153Z,2.40
2019-06-27T16:46:09.508Z,2.07
2019-06-27T16:48:41.923Z,2.40
2019-06-27T16:51:14.172Z,2.00
2019-06-27T16:53:47.214Z,2.07
2019-06-27T16:56:20.149Z,1.90
2019-06-27T16:58:51.324Z,1.80
2019-06-27T17:01:33.462Z,2.10
2019-06-27T17:04:03.711Z,2.20
2019-06-27T17:06:41.931Z,2.20
2019-06-27T17:09:07.114Z,2.30
2019-06-27T17:11:39.406Z,2.30
2019-06-27T17:14:09.659Z,2.60
2019-06-27T17:16:40.371Z,2.27
2019-06-27T17:19:10.580Z,2.23
2019-06-27T17:21:43.570Z,2.37
2019-06-27T17:24:13.911Z,2.20
2019-06-27T17:26:46.449Z,2.57
2019-06-27T17:29:20.394Z,2.33
2019-06-27T17:31:54.377Z,1.83
2019-06-27T17:34:24.670Z,1.93
2019-06-27T17:36:58.379Z,2.10
2019-06-27T17:39:34.122Z,2.00
2019-06-27T17:42:04.529Z,2.10
2019-06-27T17:44:34.744Z,2.30
2019-06-27T17:47:05.080Z,2.20
2019-06-27T17:49:58.999Z,2.37
2019-06-27T17:52:31.405Z,1.90
2019-06-27T17:55:01.733Z,2.07
2019-06-27T17:57:32.046Z,2.00
2019-06-27T18:00:02.411Z,2.13
2019-06-27T18:02:34.392Z,2.00
2019-06-27T18:05:04.799Z,2.13
2019-06-27T18:07:36.155Z,2.20
2019-06-27T18:10:06.469Z,2.03
2019-06-27T18:12:36.745Z,2.33
2019-06-27T18:15:10.711Z,2.20
2019-06-27T18:17:41.006Z,2.20
2019-06-27T18:20:11.237Z,2.50
2019-06-27T18:22:42.811Z,2.00
2019-06-27T18:25:13.110Z,1.87
2019-06-27T18:27:45.984Z,2.20
2019-06-27T18:30:20.799Z,2.13
2019-06-27T18:32:51.156Z,2.27
2019-06-27T18:35:24.247Z,1.90
2019-06-27T18:37:55.659Z,2.10
2019-06-27T18:40:26.021Z,1.97
2019-06-27T18:43:02.840Z,2.20
2019-06-27T18:45:33.184Z,2.20
2019-06-27T18:48:04.691Z,2.20
2019-06-27T18:50:36.593Z,2.00
2019-06-27T18:53:06.817Z,2.10
2019-06-27T18:55:37.072Z,2.37
2019-06-27T18:58:19.781Z,2.30
2019-06-27T19:03:31.695Z,2.27
2019-06-27T19:06:01.964Z,2.20
2019-06-27T19:08:32.269Z,2.10
2019-06-27T19:11:06.952Z,2.50
2019-06-27T19:13:37.313Z,2.33
2019-06-27T19:16:07.641Z,2.40
2019-06-27T19:18:53.740Z,2.30
2019-06-27T19:21:51.486Z,2.07
2019-06-27T19:24:49.619Z,2.13
2019-06-27T19:27:20.210Z,2.40
2019-06-27T19:29:50.807Z,1.93
2019-06-27T19:32:21.053Z,2.40
2019-06-27T19:34:51.382Z,2.27
2019-06-27T19:37:21.718Z,2.03
2019-06-27T19:39:52.236Z,2.03
2019-06-27T19:42:22.507Z,2.20
2019-06-27T19:44:52.831Z,2.30
2019-06-27T19:47:23.076Z,2.00
2019-06-27T19:49:53.363Z,2.00
2019-06-27T19:52:29.783Z,2.17
2019-06-27T19:55:00.090Z,1.90
2019-06-27T19:57:30.552Z,2.30
2019-06-27T20:00:00.883Z,2.00
2019-06-27T20:02:32.914Z,2.40
2019-06-27T20:05:03.650Z,2.07
2019-06-27T20:07:34.008Z,2.20
2019-06-27T20:10:05.868Z,2.00
2019-06-27T20:12:36.110Z,2.20
2019-06-27T20:15:06.361Z,2.37
2019-06-27T20:17:36.673Z,2.30
2019-06-27T20:20:22.380Z,2.27
2019-06-27T20:22:52.695Z,10.90
2019-06-27T20:25:22.940Z,70.90
2019-06-27T20:27:53.233Z,222.27
2019-06-27T20:30:23.439Z,214.70
2019-06-27T20:32:55.033Z,91.80
2019-06-27T20:35:25.355Z,394.23
2019-06-27T20:37:55.718Z,175.13
2019-06-27T20:40:26.023Z,54.67
2019-06-27T20:42:56.254Z,167.07
2019-06-27T20:45:31.145Z,205.07
2019-06-27T20:48:01.534Z,44.37
2019-06-27T20:50:31.868Z,312.27
2019-06-27T20:53:02.184Z,142.57
2019-06-27T20:55:32.533Z,315.13
2019-06-27T20:58:04.178Z,133.63
2019-06-27T21:00:34.455Z,54.33
2019-06-27T21:03:04.687Z,28.27
2019-06-27T21:05:34.949Z,51.20
2019-06-27T21:08:05.224Z,39.57
2019-06-27T21:10:35.485Z,30.37
2019-06-27T21:13:10.188Z,104.13
2019-06-27T21:15:40.562Z,22.60
2019-06-27T21:18:10.765Z,8.17
2019-06-27T21:20:41.034Z,5.33
2019-06-27T21:23:11.256Z,5.50
2019-06-27T21:25:41.870Z,3.67
2019-06-27T21:28:12.070Z,3.50
2019-06-27T21:30:42.347Z,3.30
2019-06-27T21:33:12.536Z,3.50
2019-06-27T21:35:43.160Z,3.60
2019-06-27T21:38:13.408Z,3.33
2019-06-27T21:40:43.717Z,3.40
2019-06-27T21:43:13.989Z,3.77
2019-06-27T21:45:44.603Z,3.27
2019-06-27T21:48:14.919Z,4.10
2019-06-27T21:50:45.154Z,4.70
2019-06-27T21:53:15.395Z,4.60
2019-06-27T21:55:45.581Z,4.10
2019-06-27T21:58:20.923Z,4.77
2019-06-27T22:00:51.385Z,3.90
2019-06-27T22:03:21.986Z,4.37
2019-06-27T22:05:52.194Z,4.33
2019-06-27T22:08:22.538Z,5.80
2019-06-27T22:10:52.822Z,4.10
2019-06-27T22:13:23.536Z,4.07
2019-06-27T22:15:53.816Z,4.37
2019-06-27T22:18:24.948Z,5.80
2019-06-27T22:20:55.222Z,10.83
2019-06-27T22:23:25.436Z,4.50
2019-06-27T22:26:00.005Z,4.37
2019-06-27T22:28:30.237Z,5.50
2019-06-27T22:31:00.531Z,7.47
2019-06-27T22:33:30.845Z,3.17
2019-06-27T22:36:01.051Z,3.80
2019-06-27T22:38:49.078Z,4.93
2019-06-27T22:41:37.118Z,5.37
2019-06-27T22:44:25.064Z,6.20
2019-06-27T22:47:12.782Z,2.87
2019-06-27T22:49:42.517Z,3.47
2019-06-27T22:52:44.785Z,3.40
2019-06-27T22:55:18.618Z,3.07
2019-06-27T22:57:48.963Z,2.90
2019-06-27T23:00:19.244Z,2.67
2019-06-27T23:02:49.544Z,2.40
2019-06-27T23:05:20.352Z,2.40
2019-06-27T23:07:50.623Z,3.10
2019-06-27T23:10:20.905Z,2.67
2019-06-27T23:12:51.164Z,3.93
2019-06-27T23:15:21.383Z,3.10
2019-06-27T23:17:51.785Z,2.80
2019-06-27T23:20:22.295Z,2.77
2019-06-27T23:22:52.585Z,2.93
2019-06-27T23:25:22.787Z,2.73
2019-06-27T23:27:53.129Z,2.40
2019-06-27T23:30:23.329Z,2.97
2019-06-27T23:33:00.387Z,3.27
2019-06-27T23:35:30.757Z,2.67
2019-06-27T23:38:01.149Z,2.70
2019-06-27T23:40:33.181Z,3.23
2019-06-27T23:43:03.482Z,3.10
2019-06-27T23:45:34.024Z,3.10
2019-06-27T23:48:04.265Z,2.90
2019-06-27T23:50:34.462Z,3.93
2019-06-27T23:53:04.730Z,3.00
2019-06-27T23:55:34.961Z,3.60
2019-06-27T23:58:05.259Z,3.30
